TimeBST,TemperatureF,Dew PointF,Humidity,Sea Level PressureIn,VisibilityMPH,Wind Direction,Wind SpeedMPH,Gust SpeedMPH,PrecipitationIn,Events,Conditions,WindDirDegrees,DateUTC
12:20 AM,68.0,57.2,68,30.51,-9999.0,ENE,4.6,-,N/A,,Clear,60,2013-07-07 23:20:00
12:50 AM,67,56,59,30.52,12,NE,4.6,,,,,50,2013-07-07 23:50:00
12:50 AM,66.2,57.2,73,30.51,-9999.0,NE,5.8,-,N/A,,Clear,50,2013-07-07 23:50:00
1:20 AM,66.2,57.2,73,30.54,-9999.0,ENE,5.8,-,N/A,,Clear,60,2013-07-08 00:20:00
1:50 AM,64.4,57.2,77,30.54,-9999.0,ENE,8.1,-,N/A,,Clear,60,2013-07-08 00:50:00
2:20 AM,64.4,57.2,77,30.54,6.2,ENE,6.9,-,N/A,,Unknown,60,2013-07-08 01:20:00
2:50 AM,62.6,57.2,82,30.54,6.2,NE,4.6,-,N/A,,Unknown,50,2013-07-08 01:50:00
3:20 AM,62.6,57.2,82,30.54,6.2,ENE,4.6,-,N/A,,Unknown,60,2013-07-08 02:20:00
3:50 AM,62,55,71,30.53,6,NE,4.6,,,,,40,2013-07-08 02:50:00
3:50 AM,62.6,57.2,82,30.54,-9999.0,NE,4.6,-,N/A,,Clear,50,2013-07-08 02:50:00
4:20 AM,60.8,55.4,82,30.54,-9999.0,NE,5.8,-,N/A,,Clear,50,2013-07-08 03:20:00
4:50 AM,60.8,55.4,82,30.54,6.2,NE,5.8,-,N/A,,Unknown,40,2013-07-08 03:50:00
5:20 AM,59.0,55.4,88,30.54,-9999.0,NNE,6.9,-,N/A,,Clear,30,2013-07-08 04:20:00
5:50 AM,59.0,53.6,82,30.54,-9999.0,NE,6.9,-,N/A,,Clear,40,2013-07-08 04:50:00
6:20 AM,60.8,55.4,82,30.54,-9999.0,NE,6.9,-,N/A,,Clear,40,2013-07-08 05:20:00
6:50 AM,62,53,65,30.54,10,NNE,5.8,,,,,30,2013-07-08 05:50:00
6:50 AM,60.8,55.4,82,30.54,-9999.0,NE,8.1,-,N/A,,Clear,50,2013-07-08 05:50:00
7:20 AM,62.6,53.6,72,30.54,-9999.0,NE,9.2,-,N/A,,Clear,50,2013-07-08 06:20:00
7:50 AM,64.4,53.6,68,30.54,-9999.0,NE,6.9,-,N/A,,Clear,50,2013-07-08 06:50:00
8:20 AM,66.2,51.8,60,30.54,-9999.0,ENE,8.1,-,N/A,,Clear,60,2013-07-08 07:20:00
8:50 AM,68.0,50.0,52,30.54,-9999.0,ENE,10.4,-,N/A,,Clear,60,2013-07-08 07:50:00
9:20 AM,69.8,50.0,49,30.54,-9999.0,NE,10.4,-,N/A,,Clear,50,2013-07-08 08:20:00
9:50 AM,72,49,34,30.53,16,NE,11.5,,,,,50,2013-07-08 08:50:00
9:50 AM,71.6,50.0,46,30.54,-9999.0,ENE,9.2,-,N/A,,Clear,60,2013-07-08 08:50:00
10:20 AM,73.4,50.0,44,30.54,-9999.0,NE,10.4,-,N/A,,Clear,50,2013-07-08 09:20:00
10:50 AM,75.2,50.0,41,30.51,-9999.0,ENE,11.5,-,N/A,,Clear,70,2013-07-08 09:50:00
11:20 AM,75.2,51.8,44,30.51,-9999.0,NE,11.5,-,N/A,,Clear,50,2013-07-08 10:20:00
11:50 AM,77.0,53.6,44,30.51,-9999.0,ENE,12.7,-,N/A,,Clear,60,2013-07-08 10:50:00
12:20 PM,77.0,53.6,44,30.51,-9999.0,ENE,11.5,-,N/A,,Clear,70,2013-07-08 11:20:00
12:50 PM,79,52,28,30.50,17,NE,12.7,,,,,50,2013-07-08 11:50:00
12:50 PM,78.8,53.6,42,30.51,-9999.0,ENE,11.5,-,N/A,,Clear,70,2013-07-08 11:50:00
1:20 PM,78.8,53.6,42,30.51,-9999.0,ENE,11.5,-,N/A,,Clear,60,2013-07-08 12:20:00
1:50 PM,78.8,53.6,42,30.48,-9999.0,ENE,10.4,-,N/A,,Clear,60,2013-07-08 12:50:00
2:20 PM,80.6,53.6,39,30.48,-9999.0,NE,9.2,-,N/A,,Clear,50,2013-07-08 13:20:00
2:50 PM,80.6,55.4,42,30.48,-9999.0,ENE,11.5,-,N/A,,Clear,70,2013-07-08 13:50:00
3:20 PM,80.6,55.4,42,30.48,-9999.0,NE,11.5,-,N/A,,Clear,50,2013-07-08 14:20:00
3:50 PM,80,55,32,30.46,17,NE,12.7,,,,,40,2013-07-08 14:50:00
3:50 PM,80.6,55.4,42,30.45,-9999.0,NE,11.5,-,N/A,,Clear,40,2013-07-08 14:50:00
4:20 PM,82.4,55.4,39,30.45,-9999.0,NE,10.4,-,N/A,,Clear,40,2013-07-08 15:20:00
4:50 PM,80.6,57.2,45,30.45,-9999.0,ENE,11.5,-,N/A,,Clear,60,2013-07-08 15:50:00
5:20 PM,80.6,57.2,45,30.45,-9999.0,NE,10.4,-,N/A,,Clear,40,2013-07-08 16:20:00
5:50 PM,78.8,60.8,54,30.45,6.2,NE,11.5,-,N/A,,Partly Cloudy,40,2013-07-08 16:50:00
6:20 PM,78.8,60.8,54,30.42,6.2,NNE,11.5,-,N/A,,Partly Cloudy,30,2013-07-08 17:20:00
6:50 PM,76,60,47,30.44,19,NNE,11.5,,,,Partly Cloudy,20,2013-07-08 17:50:00
6:50 PM,77.0,60.8,57,30.42,6.2,NNE,9.2,-,N/A,,Partly Cloudy,20,2013-07-08 17:50:00
7:20 PM,75.2,60.8,61,30.42,6.2,NE,9.2,-,N/A,,Partly Cloudy,50,2013-07-08 18:20:00
7:50 PM,75.2,57.2,53,30.42,-9999.0,ENE,11.5,-,N/A,,Clear,60,2013-07-08 18:50:00
8:20 PM,73.4,55.4,53,30.45,-9999.0,ENE,11.5,-,N/A,,Clear,60,2013-07-08 19:20:00
8:50 PM,71.6,57.2,60,30.45,-9999.0,ENE,11.5,-,N/A,,Clear,60,2013-07-08 19:50:00
9:20 PM,69.8,57.2,64,30.45,-9999.0,NE,10.4,-,N/A,,Clear,50,2013-07-08 20:20:00
9:50 PM,69,58,59,30.46,16,NE,10.4,,,,,50,2013-07-08 20:50:00
9:50 PM,68.0,59.0,73,30.45,-9999.0,ENE,11.5,-,N/A,,Clear,60,2013-07-08 20:50:00
10:20 PM,66.2,59.0,78,30.45,-9999.0,ENE,11.5,-,N/A,,Clear,60,2013-07-08 21:20:00
10:50 PM,66.2,59.0,78,30.45,-9999.0,ENE,8.1,-,N/A,,Clear,60,2013-07-08 21:50:00
11:20 PM,64.4,57.2,77,30.45,-9999.0,ENE,11.5,-,N/A,,Clear,60,2013-07-08 22:20:00
11:50 PM,64.4,55.4,73,30.45,-9999.0,ENE,8.1,-,N/A,,Clear,60,2013-07-08 22:50:00